Time,TemperatureF,DewpointF,PressureIn,WindDirection,WindDirectionDegrees,WindSpeedMPH,WindSpeedGustMPH,Humidity,HourlyPrecipIn,Conditions,Clouds,dailyrainin,SoftwareType,DateUTC
2013-03-24 01:12:00,33.1,24.1,29.69,NW,324,3.8,8.7,69,0.00,n/a,n/a,-99.99,Henriksen +1-Wire,2013-03-24 05:12:00,
2013-03-24 01:13:00,33.1,24.1,29.69,NNW,331,3.8,8.7,69,0.00,n/a,n/a,-99.99,Henriksen +1-Wire,2013-03-24 05:13:00,
2013-03-24 01:15:00,33.1,24.1,29.69,NNW,330,3.8,9.4,69,0.00,n/a,n/a,-99.99,Henriksen +1-Wire,2013-03-24 05:15:00,
2013-03-24 03:17:00,33.3,24.4,29.69,NW,320,4.2,7.1,69,0.00,n/a,n/a,-99.99,Henriksen +1-Wire,2013-03-24 07:17:00,
2013-03-24 03:18:00,33.2,24.4,29.69,NW,320,4.7,8.5,69,0.00,n/a,n/a,-99.99,Henriksen +1-Wire,2013-03-24 07:18:00,
2013-03-24 03:23:00,33.3,24.6,29.69,NNW,331,4.5,9.3,70,0.00,n/a,n/a,-99.99,Henriksen +1-Wire,2013-03-24 07:23:00,
2013-03-24 03:28:00,33.3,24.5,29.69,NNW,330,3.5,9.3,70,0.00,n/a,n/a,-99.99,Henriksen +1-Wire,2013-03-24 07:28:00,
2013-03-24 03:33:00,33.2,24.5,29.69,NW,323,4.7,7.9,70,0.00,n/a,n/a,-99.99,Henriksen +1-Wire,2013-03-24 07:33:00,
2013-03-24 03:38:00,33.2,24.6,29.69,NW,325,3.8,7.9,70,0.00,n/a,n/a,-99.99,Henriksen +1-Wire,2013-03-24 07:38:00,
2013-03-24 03:43:00,33.2,24.6,29.69,NNW,340,4.1,6.7,70,0.00,n/a,n/a,-99.99,Henriksen +1-Wire,2013-03-24 07:43:00,
2013-03-24 03:49:00,33.3,24.6,29.69,NNW,329,5.0,8.0,70,0.00,n/a,n/a,-99.99,Henriksen +1-Wire,2013-03-24 07:49:00,
2013-03-24 03:54:00,33.3,24.5,29.69,NW,324,5.4,10.0,69,0.00,n/a,n/a,-99.99,Henriksen +1-Wire,2013-03-24 07:54:00,
2013-03-24 03:59:00,33.3,24.5,29.69,NNW,328,3.5,10.0,69,0.00,n/a,n/a,-99.99,Henriksen +1-Wire,2013-03-24 07:59:00,
2013-03-24 06:02:00,32.3,24.6,29.69,NW,316,4.0,7.9,73,0.00,n/a,n/a,-99.99,Henriksen +1-Wire,2013-03-24 10:02:00,
2013-03-24 06:07:00,32.2,24.6,29.69,NW,317,3.6,6.4,73,0.00,n/a,n/a,-99.99,Henriksen +1-Wire,2013-03-24 10:07:00,
2013-03-24 08:12:00,35.1,26.0,29.76,NW,322,4.2,9.4,69,0.00,n/a,n/a,-99.99,Henriksen +1-Wire,2013-03-24 12:12:00,
2013-03-24 08:17:00,35.3,25.9,29.76,NNW,330,5.0,10.2,68,0.00,n/a,n/a,-99.99,Henriksen +1-Wire,2013-03-24 12:17:00,
2013-03-24 08:22:00,35.6,25.9,29.76,North,349,4.9,15.3,67,0.00,n/a,n/a,-99.99,Henriksen +1-Wire,2013-03-24 12:22:00,
2013-03-24 08:27:00,35.8,26.0,29.76,NNW,343,4.9,15.3,67,0.00,n/a,n/a,-99.99,Henriksen +1-Wire,2013-03-24 12:27:00,
2013-03-24 08:32:00,36.0,26.0,29.76,NNW,327,5.2,12.2,66,0.00,n/a,n/a,-99.99,Henriksen +1-Wire,2013-03-24 12:32:00,
2013-03-24 08:37:00,36.2,26.0,29.76,NNW,336,4.2,12.2,66,0.00,n/a,n/a,-99.99,Henriksen +1-Wire,2013-03-24 12:37:00,
2013-03-24 08:42:00,36.4,26.0,29.76,NW,320,5.4,10.2,65,0.00,n/a,n/a,-99.99,Henriksen +1-Wire,2013-03-24 12:42:00,
2013-03-24 08:47:00,36.6,26.0,29.76,NNW,331,6.1,10.2,65,0.00,n/a,n/a,-99.99,Henriksen +1-Wire,2013-03-24 12:47:00,
2013-03-24 08:52:00,36.7,25.9,29.76,NNW,339,6.3,10.8,64,0.00,n/a,n/a,-99.99,Henriksen +1-Wire,2013-03-24 12:52:00,
2013-03-24 10:57:00,42.0,26.4,29.75,North,1,6.1,11.1,53,0.00,n/a,n/a,-99.99,Henriksen +1-Wire,2013-03-24 14:57:00,
2013-03-24 11:03:00,42.0,26.3,29.75,North,356,3.9,13.6,53,0.00,n/a,n/a,-99.99,Henriksen +1-Wire,2013-03-24 15:03:00,
2013-03-24 11:08:00,42.2,26.7,29.75,NNE,15,4.8,13.6,53,0.00,n/a,n/a,-99.99,Henriksen +1-Wire,2013-03-24 15:08:00,
2013-03-24 11:14:00,42.2,26.9,29.75,North,351,4.6,10.4,54,0.00,n/a,n/a,-99.99,Henriksen +1-Wire,2013-03-24 15:14:00,
2013-03-24 12:54:00,45.4,27.5,29.75,NE,39,2.3,2.5,49,0.00,n/a,n/a,-99.99,Henriksen +1-Wire,2013-03-24 16:54:00,
2013-03-24 12:59:00,45.7,27.3,29.75,North,351,2.5,7.1,48,0.00,n/a,n/a,-99.99,Henriksen +1-Wire,2013-03-24 16:59:00,
2013-03-24 13:04:00,45.8,26.9,29.75,NNE,19,3.2,7.1,47,0.00,n/a,n/a,-99.99,Henriksen +1-Wire,2013-03-24 17:04:00,
2013-03-24 13:10:00,45.7,26.5,29.75,North,3,3.2,7.8,46,0.00,n/a,n/a,-99.99,Henriksen +1-Wire,2013-03-24 17:10:00,
2013-03-24 13:16:00,45.9,26.6,29.75,NNW,342,3.5,9.6,46,0.00,n/a,n/a,-99.99,Henriksen +1-Wire,2013-03-24 17:16:00,
2013-03-24 15:17:00,44.5,32.3,29.74,South,189,3.8,7.5,61,0.00,n/a,n/a,-99.99,Henriksen +1-Wire,2013-03-24 19:17:00,
2013-03-24 15:22:00,44.6,32.3,29.73,SSE,162,5.0,7.1,61,0.00,n/a,n/a,-99.99,Henriksen +1-Wire,2013-03-24 19:22:00,
2013-03-24 15:27:00,44.6,32.0,29.73,South,185,5.0,9.1,60,0.00,n/a,n/a,-99.99,Henriksen +1-Wire,2013-03-24 19:27:00,
2013-03-24 15:34:00,44.4,31.8,29.73,SSE,157,4.8,7.7,60,0.00,n/a,n/a,-99.99,Henriksen +1-Wire,2013-03-24 19:34:00,
2013-03-24 17:37:00,40.2,31.0,29.73,South,182,4.3,7.9,69,0.00,n/a,n/a,-99.99,Henriksen +1-Wire,2013-03-24 21:37:00,
2013-03-24 19:42:00,37.3,32.7,29.76,South,176,0.0,1.0,83,0.00,n/a,n/a,-99.99,Henriksen +1-Wire,2013-03-24 23:42:00,
2013-03-24 19:48:00,37.1,32.4,29.76,South,186,0.0,0.0,82,0.00,n/a,n/a,-99.99,Henriksen +1-Wire,2013-03-24 23:48:00,
2013-03-24 19:53:00,36.9,32.3,29.76,SSW,202,0.0,0.0,82,0.00,n/a,n/a,-99.99,Henriksen +1-Wire,2013-03-24 23:53:00,
2013-03-24 21:57:00,34.9,31.5,29.77,NNW,327,1.8,2.6,87,0.00,n/a,n/a,-99.99,Henriksen +1-Wire,2013-03-25 01:57:00,
2013-03-24 22:03:00,34.7,31.3,29.77,WNW,295,0.9,2.6,87,0.00,n/a,n/a,-99.99,Henriksen +1-Wire,2013-03-25 02:03:00,
2013-03-24 22:08:00,34.5,31.2,29.77,NW,323,1.2,2.0,87,0.00,n/a,n/a,-99.99,Henriksen +1-Wire,2013-03-25 02:08:00,
2013-03-24 22:14:00,34.2,31.2,29.77,NNE,15,1.3,2.4,88,0.00,n/a,n/a,-99.99,Henriksen +1-Wire,2013-03-25 02:14:00,
2013-03-24 22:19:00,34.0,31.2,29.77,NNE,18,0.8,2.4,89,0.00,n/a,n/a,-99.99,Henriksen +1-Wire,2013-03-25 02:19:00,